createdAt,value
2023-04-30T00:01:25.758Z,95072.94
2023-04-30T00:03:54.137Z,95072.66
2023-04-30T00:06:22.724Z,95069.03
2023-04-30T00:08:51.016Z,95063.94
2023-04-30T00:11:19.329Z,95065.97
2023-04-30T00:13:49.001Z,95051.41
2023-04-30T00:16:17.325Z,95071.84
2023-04-30T00:18:45.938Z,95063.38
2023-04-30T00:21:14.143Z,95068.97
2023-04-30T00:23:42.495Z,95060.78
2023-04-30T00:26:10.803Z,95059.25
2023-04-30T00:28:42.266Z,95055.03
2023-04-30T00:31:11.920Z,95065.69
2023-04-30T00:33:40.148Z,95069.63
2023-04-30T00:36:08.472Z,95063.28
2023-04-30T00:38:36.663Z,95065.59
2023-04-30T00:41:05.911Z,95021.63
2023-04-30T00:43:34.567Z,95059.91
2023-04-30T00:46:04.045Z,95024.34
2023-04-30T00:48:33.823Z,95071.28
2023-04-30T00:51:04.092Z,95071.06
2023-04-30T00:53:32.960Z,95073.19
2023-04-30T00:56:01.308Z,95082.56
2023-04-30T00:58:31.317Z,95073.06
2023-04-30T01:01:00.114Z,95074.69
2023-04-30T01:03:29.904Z,95068.94
2023-04-30T01:05:59.626Z,95054.72
2023-04-30T01:08:27.899Z,95072.34
2023-04-30T01:11:04.547Z,95062.19
2023-04-30T01:13:41.953Z,95060.53
2023-04-30T01:16:16.959Z,95064.97
2023-04-30T01:18:51.062Z,95068.13
2023-04-30T01:21:21.287Z,95074.22
2023-04-30T01:24:15.169Z,95071.56
2023-04-30T01:26:54.907Z,95068.56
2023-04-30T01:29:26.329Z,95062.69
2023-04-30T01:31:54.640Z,95064.22
2023-04-30T01:34:22.905Z,95055.69
2023-04-30T01:37:06.273Z,95061.69
2023-04-30T01:39:58.591Z,95061.41
2023-04-30T01:42:37.534Z,95058.81
2023-04-30T01:45:24.109Z,95058.06
2023-04-30T01:47:58.947Z,95059.16
2023-04-30T01:50:35.589Z,95064.59
2023-04-30T01:53:07.049Z,95070.94
2023-04-30T01:55:39.441Z,95056.69
2023-04-30T01:58:11.176Z,95069.69
2023-04-30T02:00:41.171Z,95063.19
2023-04-30T02:03:09.794Z,95064.09
2023-04-30T02:05:38.110Z,95055.28
2023-04-30T02:08:07.160Z,95058.09
2023-04-30T02:10:35.573Z,95061.38
2023-04-30T02:13:03.778Z,95056.06
2023-04-30T02:15:32.178Z,95060.59
2023-04-30T02:18:01.860Z,95058.44
2023-04-30T02:20:30.167Z,95067.03
2023-04-30T02:22:58.496Z,95061.75
2023-04-30T02:25:26.883Z,95062.13
2023-04-30T02:27:55.137Z,95062.69
2023-04-30T02:30:23.396Z,95059.16
2023-04-30T02:32:51.692Z,95057.31
2023-04-30T02:35:21.322Z,95049.00
2023-04-30T02:37:49.684Z,95055.84
2023-04-30T02:40:17.962Z,95056.63
2023-04-30T02:42:46.198Z,95059.41
2023-04-30T02:45:14.536Z,95058.31
2023-04-30T02:47:42.734Z,95060.97
2023-04-30T02:50:11.645Z,95068.22
2023-04-30T02:52:41.468Z,95013.59
2023-04-30T02:55:10.412Z,95074.28
2023-04-30T02:57:39.121Z,95073.25
2023-04-30T03:00:08.942Z,95020.78
2023-04-30T03:02:37.328Z,95078.38
2023-04-30T03:05:06.355Z,95058.06
2023-04-30T03:07:34.618Z,95082.69
2023-04-30T03:10:04.526Z,95082.28
2023-04-30T03:12:32.816Z,95092.50
2023-04-30T03:15:01.107Z,95086.38
2023-04-30T03:17:29.428Z,95083.72
2023-04-30T03:19:57.794Z,95084.78
2023-04-30T03:22:26.856Z,95087.16
2023-04-30T03:24:55.067Z,95093.31
2023-04-30T03:27:24.831Z,95088.59
2023-04-30T03:29:53.308Z,95087.59
2023-04-30T03:32:21.775Z,95086.25
2023-04-30T03:34:50.126Z,95089.44
2023-04-30T03:37:18.504Z,95099.19
2023-04-30T03:39:46.806Z,95097.25
2023-04-30T03:42:15.050Z,95100.06
2023-04-30T03:44:44.766Z,95101.03
2023-04-30T03:47:13.173Z,95100.75
2023-04-30T03:49:41.446Z,95098.06
2023-04-30T03:52:09.766Z,95101.53
2023-04-30T03:54:38.054Z,95102.50
2023-04-30T03:57:08.132Z,95111.00
2023-04-30T03:59:36.616Z,95108.31
2023-04-30T04:02:06.635Z,95107.69
2023-04-30T04:04:35.036Z,95104.78
2023-04-30T04:07:04.052Z,95103.66
2023-04-30T04:09:32.408Z,95106.88
2023-04-30T04:12:01.636Z,95105.19
2023-04-30T04:14:29.991Z,95057.88
2023-04-30T04:17:00.062Z,95107.72
2023-04-30T04:19:29.795Z,95117.13
2023-04-30T04:21:58.222Z,95061.09
2023-04-30T04:24:26.458Z,95110.91
2023-04-30T04:26:54.930Z,95114.38
2023-04-30T04:29:23.525Z,95117.09
2023-04-30T04:31:51.826Z,95121.28
2023-04-30T04:34:21.169Z,95122.06
2023-04-30T04:36:50.913Z,95129.78
2023-04-30T04:39:19.257Z,95123.66
2023-04-30T04:41:47.668Z,95135.19
2023-04-30T04:44:15.985Z,95133.69
2023-04-30T04:46:44.688Z,95135.69
2023-04-30T04:49:13.895Z,95142.88
2023-04-30T04:51:42.211Z,95129.53
2023-04-30T04:54:11.957Z,95139.94
2023-04-30T04:56:41.471Z,95142.16
2023-04-30T04:59:11.067Z,95108.88
2023-04-30T05:01:39.498Z,95145.84
2023-04-30T05:04:10.797Z,95144.13
2023-04-30T05:06:39.082Z,95144.53
2023-04-30T05:09:09.588Z,95139.47
2023-04-30T05:11:39.261Z,95135.63
2023-04-30T05:14:07.597Z,95135.41
2023-04-30T05:16:35.945Z,95132.63
2023-04-30T05:19:04.221Z,95141.78
2023-04-30T05:21:33.167Z,95119.47
2023-04-30T05:24:01.432Z,95142.66
2023-04-30T05:26:29.780Z,95143.25
2023-04-30T05:28:59.446Z,95143.81
2023-04-30T05:31:27.796Z,95135.53
2023-04-30T05:33:56.160Z,95135.00
2023-04-30T05:36:24.397Z,95139.72
2023-04-30T05:38:52.672Z,95156.44
2023-04-30T05:41:22.907Z,95142.56
2023-04-30T05:43:51.554Z,95147.13
2023-04-30T05:46:21.393Z,95144.47
2023-04-30T05:48:49.671Z,95142.75
2023-04-30T05:51:17.996Z,95144.06
2023-04-30T05:53:46.274Z,95139.56
2023-04-30T05:56:14.533Z,95122.41
2023-04-30T05:58:42.825Z,95140.66
2023-04-30T06:01:11.343Z,95139.16
2023-04-30T06:03:41.075Z,95132.19
2023-04-30T06:06:09.508Z,95132.97
2023-04-30T06:08:38.205Z,95123.47
2023-04-30T06:11:07.112Z,95128.31
2023-04-30T06:13:35.382Z,95121.91
2023-04-30T06:16:03.914Z,95117.56
2023-04-30T06:18:32.211Z,95127.66
2023-04-30T06:21:02.066Z,95053.31
2023-04-30T06:23:30.253Z,95124.53
2023-04-30T06:25:58.534Z,95118.81
2023-04-30T06:28:26.846Z,95116.03
2023-04-30T06:30:55.483Z,95104.06
2023-04-30T06:33:23.955Z,95113.53
2023-04-30T06:35:54.934Z,95046.94
2023-04-30T06:38:24.621Z,95120.44
2023-04-30T06:40:52.970Z,95101.44
2023-04-30T06:43:21.358Z,95103.06
2023-04-30T06:45:49.598Z,95086.88
2023-04-30T06:48:17.904Z,95096.63
2023-04-30T06:50:46.180Z,95057.66
2023-04-30T06:53:14.612Z,95096.25
2023-04-30T06:55:46.643Z,95034.00
2023-04-30T06:58:14.887Z,95094.78
2023-04-30T07:00:44.420Z,95079.81
2023-04-30T07:03:12.887Z,95085.03
2023-04-30T07:05:41.787Z,95095.38
2023-04-30T07:08:10.235Z,95087.28
2023-04-30T07:10:38.576Z,95093.66
2023-04-30T07:13:08.586Z,95090.34
2023-04-30T07:15:37.336Z,95093.16
2023-04-30T07:18:05.768Z,95095.63
2023-04-30T07:20:34.127Z,95084.50
2023-04-30T07:23:02.460Z,95081.34
2023-04-30T07:25:30.725Z,95084.59
2023-04-30T07:27:58.951Z,95085.63
2023-04-30T07:30:28.697Z,95086.41
2023-04-30T07:32:58.033Z,95082.50
2023-04-30T07:35:26.418Z,95083.00
2023-04-30T07:37:54.748Z,95073.75
2023-04-30T07:40:35.002Z,95009.63
2023-04-30T07:43:04.753Z,95063.94
2023-04-30T07:45:35.426Z,95056.47
2023-04-30T07:48:03.739Z,95041.16
2023-04-30T07:50:34.522Z,95071.06
2023-04-30T07:53:03.466Z,95067.88
2023-04-30T07:55:31.814Z,95035.75
2023-04-30T07:58:00.675Z,95064.19
2023-04-30T08:00:29.638Z,95058.28
2023-04-30T08:03:00.775Z,95063.53
2023-04-30T08:05:29.368Z,95060.28
2023-04-30T08:07:57.850Z,95061.81
2023-04-30T08:10:26.951Z,95054.41
2023-04-30T08:12:55.266Z,95048.88
2023-04-30T08:15:23.574Z,95054.66
2023-04-30T08:17:52.982Z,95020.09
2023-04-30T08:20:23.890Z,95051.31
2023-04-30T08:22:52.470Z,95045.03
2023-04-30T08:25:21.000Z,95027.84
2023-04-30T08:27:49.340Z,95053.63
2023-04-30T08:30:17.562Z,95047.75
2023-04-30T08:32:46.124Z,95003.06
2023-04-30T08:35:14.399Z,95046.13
2023-04-30T08:37:44.113Z,95042.84
2023-04-30T08:40:14.262Z,94973.13
2023-04-30T08:42:46.454Z,95034.69
2023-04-30T08:45:14.913Z,95027.94
2023-04-30T08:47:44.544Z,95036.78
2023-04-30T08:50:13.425Z,95038.63
2023-04-30T08:52:43.507Z,95023.56
2023-04-30T08:55:12.472Z,95020.38
2023-04-30T08:57:40.727Z,95018.88
2023-04-30T09:00:10.315Z,95011.88
2023-04-30T09:02:42.900Z,95021.47
2023-04-30T09:05:13.912Z,94972.91
2023-04-30T09:08:01.163Z,95007.59
2023-04-30T09:10:34.923Z,95010.53
2023-04-30T09:13:04.756Z,95004.59
2023-04-30T09:15:34.555Z,94938.03
2023-04-30T09:18:11.447Z,94990.22
2023-04-30T09:20:54.420Z,94991.69
2023-04-30T09:23:24.745Z,94988.53
2023-04-30T09:25:53.054Z,94980.47
2023-04-30T09:28:23.982Z,94958.59
2023-04-30T09:30:53.455Z,94979.19
2023-04-30T09:33:21.757Z,94975.28
2023-04-30T09:35:50.400Z,94971.06
2023-04-30T09:38:30.590Z,94964.91
2023-04-30T09:41:00.399Z,94969.59
2023-04-30T09:43:28.825Z,94958.22
2023-04-30T09:45:59.716Z,94959.88
2023-04-30T09:48:29.003Z,94865.09
2023-04-30T09:50:57.484Z,94959.19
2023-04-30T09:53:25.844Z,94951.75
2023-04-30T09:55:57.894Z,94949.19
2023-04-30T09:58:30.130Z,94948.53
2023-04-30T10:01:00.838Z,94945.53
2023-04-30T10:03:29.489Z,94943.06
2023-04-30T10:06:04.401Z,94940.81
2023-04-30T10:08:40.183Z,94922.06
2023-04-30T10:11:13.054Z,94923.59
2023-04-30T10:13:44.959Z,94915.16
2023-04-30T10:16:19.543Z,94917.38
2023-04-30T10:18:53.212Z,94921.28
2023-04-30T10:21:24.495Z,94915.34
2023-04-30T10:23:54.272Z,94909.25
2023-04-30T10:26:24.788Z,94916.75
2023-04-30T10:28:55.347Z,94911.22
2023-04-30T10:31:24.020Z,94904.53
2023-04-30T10:34:00.613Z,94911.53
2023-04-30T10:36:36.138Z,94921.78
2023-04-30T10:39:04.860Z,94868.56
2023-04-30T10:41:34.763Z,94899.91
2023-04-30T10:44:05.482Z,94859.41
2023-04-30T10:46:37.103Z,94900.25
2023-04-30T10:49:05.551Z,94856.97
2023-04-30T10:51:54.461Z,94904.94
2023-04-30T10:54:28.251Z,94893.75
2023-04-30T10:57:12.102Z,94896.44
2023-04-30T10:59:45.278Z,94899.41
2023-04-30T11:02:16.599Z,94901.13
2023-04-30T11:05:13.915Z,94897.69
2023-04-30T11:07:50.603Z,94891.94
2023-04-30T11:10:22.377Z,94894.72
2023-04-30T11:12:53.538Z,94891.56
2023-04-30T11:15:26.325Z,94888.88
2023-04-30T11:17:59.033Z,94891.09
2023-04-30T11:20:27.910Z,94880.94
2023-04-30T11:23:15.560Z,94879.66
2023-04-30T11:25:49.394Z,94872.06
2023-04-30T11:28:20.766Z,94867.94
2023-04-30T11:30:53.403Z,94866.72
2023-04-30T11:33:22.986Z,94860.97
2023-04-30T11:35:53.438Z,94860.13
2023-04-30T11:38:23.902Z,94868.00
2023-04-30T11:40:52.770Z,94798.75
2023-04-30T11:43:27.552Z,94865.28
2023-04-30T11:46:07.292Z,94866.00
2023-04-30T11:48:36.826Z,94842.19
2023-04-30T11:51:07.342Z,94867.19
2023-04-30T11:53:35.609Z,94871.97
2023-04-30T11:56:07.387Z,94865.94
2023-04-30T11:58:40.291Z,94866.22
2023-04-30T12:01:09.873Z,94872.22
2023-04-30T12:03:45.464Z,94881.63
2023-04-30T12:06:14.343Z,94894.88
2023-04-30T12:08:43.485Z,94897.41
2023-04-30T12:11:23.813Z,94900.34
2023-04-30T12:13:54.826Z,94893.31
2023-04-30T12:16:24.162Z,94890.16
2023-04-30T12:18:53.224Z,94891.47
2023-04-30T12:21:25.540Z,94894.56
2023-04-30T12:23:54.515Z,94878.31
2023-04-30T12:26:22.838Z,94874.97
2023-04-30T12:28:51.632Z,94864.94
2023-04-30T12:31:21.693Z,94820.94
2023-04-30T12:33:56.537Z,94874.81
2023-04-30T12:36:33.035Z,94879.44
2023-04-30T12:39:08.921Z,94829.66
2023-04-30T12:41:43.151Z,94896.44
2023-04-30T12:44:18.906Z,94894.50
2023-04-30T12:46:49.424Z,94905.13
2023-04-30T12:49:27.994Z,94895.56
2023-04-30T12:52:04.307Z,94887.47
2023-04-30T12:54:33.815Z,94750.13
2023-04-30T12:57:03.743Z,94899.59
2023-04-30T12:59:32.938Z,94908.78
2023-04-30T13:02:10.185Z,94899.34
2023-04-30T13:04:38.830Z,94903.47
2023-04-30T13:07:07.298Z,94784.44
2023-04-30T13:09:36.771Z,94907.03
2023-04-30T13:12:06.523Z,94892.88
2023-04-30T13:14:35.294Z,94897.91
2023-04-30T13:17:05.972Z,94882.75
2023-04-30T13:19:35.881Z,94885.09
2023-04-30T13:22:04.225Z,94877.00
2023-04-30T13:24:32.528Z,94821.47
2023-04-30T13:27:00.840Z,94877.38
2023-04-30T13:29:29.103Z,94866.41
2023-04-30T13:31:57.476Z,94879.50
2023-04-30T13:34:25.899Z,94866.44
2023-04-30T13:36:55.611Z,94853.88
2023-04-30T13:39:24.077Z,94849.34
2023-04-30T13:41:52.359Z,94855.00
2023-04-30T13:44:20.619Z,94842.84
2023-04-30T13:46:48.944Z,94852.50
2023-04-30T13:49:17.339Z,94844.91
2023-04-30T13:51:45.583Z,94853.22
2023-04-30T13:54:15.374Z,94866.56
2023-04-30T13:56:43.608Z,94878.00
2023-04-30T13:59:12.646Z,94884.44
2023-04-30T14:01:41.576Z,94881.28
2023-04-30T14:04:09.935Z,94882.69
2023-04-30T14:06:39.062Z,94897.47
2023-04-30T14:09:07.722Z,94896.09
2023-04-30T14:11:37.663Z,94913.03
2023-04-30T14:14:05.984Z,94921.38
2023-04-30T14:16:34.412Z,94922.47
2023-04-30T14:19:03.441Z,94927.41
2023-04-30T14:21:33.378Z,94948.06
2023-04-30T14:24:01.694Z,94966.22
2023-04-30T14:26:30.168Z,94981.69
2023-04-30T14:29:00.204Z,94988.97
2023-04-30T14:31:28.549Z,94993.91
2023-04-30T14:33:56.853Z,95001.22
2023-04-30T14:36:25.233Z,94994.34
2023-04-30T14:38:53.465Z,95007.25
2023-04-30T14:41:22.122Z,94946.34
2023-04-30T14:43:50.384Z,95008.78
2023-04-30T14:46:20.217Z,95002.41
2023-04-30T14:48:48.459Z,95013.06
2023-04-30T14:51:16.844Z,95013.00
2023-04-30T14:53:45.123Z,94996.34
2023-04-30T14:56:13.524Z,94910.56
2023-04-30T14:58:41.829Z,94992.47
2023-04-30T15:01:10.180Z,95003.81
2023-04-30T15:03:40.170Z,95006.50
2023-04-30T15:06:08.771Z,94991.06
2023-04-30T15:08:37.085Z,95001.47
2023-04-30T15:11:07.128Z,94991.38
2023-04-30T15:13:35.445Z,94991.97
2023-04-30T15:16:03.940Z,94974.56
2023-04-30T15:18:32.498Z,94969.66
2023-04-30T15:21:02.231Z,94986.44
2023-04-30T15:23:31.931Z,94976.81
2023-04-30T15:26:00.342Z,94931.22
2023-04-30T15:28:29.105Z,94973.66
2023-04-30T15:30:57.384Z,94978.91
2023-04-30T15:33:27.615Z,94971.19
2023-04-30T15:35:56.576Z,94939.34
2023-04-30T15:38:27.543Z,94976.13
2023-04-30T15:40:56.040Z,94978.75
2023-04-30T15:43:24.367Z,94982.59
2023-04-30T15:45:52.688Z,94969.91
2023-04-30T15:48:21.009Z,94978.00
2023-04-30T15:50:50.372Z,94982.44
2023-04-30T15:53:18.748Z,94983.09
2023-04-30T15:55:50.780Z,94987.84
2023-04-30T15:58:19.169Z,94939.13
2023-04-30T16:00:47.449Z,94987.34
2023-04-30T16:03:15.973Z,94994.41
2023-04-30T16:05:44.394Z,94994.47
2023-04-30T16:08:12.708Z,94986.59
2023-04-30T16:10:41.095Z,94995.19
2023-04-30T16:13:10.722Z,95001.94
2023-04-30T16:15:38.895Z,95005.06
2023-04-30T16:18:07.932Z,95003.06
2023-04-30T16:20:36.897Z,95010.50
2023-04-30T16:23:06.022Z,95006.88
2023-04-30T16:25:35.199Z,95012.09
2023-04-30T16:28:03.596Z,95000.78
2023-04-30T16:30:37.220Z,95022.31
2023-04-30T16:33:05.612Z,95025.31
2023-04-30T16:35:33.934Z,95027.03
2023-04-30T16:38:02.771Z,95028.00
2023-04-30T16:40:31.118Z,95028.63
2023-04-30T16:43:00.774Z,95024.81
2023-04-30T16:45:30.444Z,95032.25
2023-04-30T16:48:00.203Z,95044.97
2023-04-30T16:50:29.145Z,95043.53
2023-04-30T16:52:57.418Z,95052.03
2023-04-30T16:55:27.679Z,95053.34
2023-04-30T16:57:56.374Z,95077.91
2023-04-30T17:00:24.660Z,95078.22
2023-04-30T17:02:53.562Z,95084.38
2023-04-30T17:05:23.634Z,95083.91
2023-04-30T17:07:51.962Z,95091.75
2023-04-30T17:10:21.758Z,95095.69
2023-04-30T17:12:50.183Z,95096.97
2023-04-30T17:15:20.370Z,95107.06
2023-04-30T17:17:48.730Z,95104.63
2023-04-30T17:20:17.067Z,95113.50
2023-04-30T17:22:47.551Z,95105.47
2023-04-30T17:25:16.373Z,95070.69
2023-04-30T17:27:44.697Z,95132.84
2023-04-30T17:30:13.379Z,95130.06
2023-04-30T17:32:42.051Z,95130.06
2023-04-30T17:35:11.088Z,95112.63
2023-04-30T17:37:39.649Z,95106.81
2023-04-30T17:40:10.721Z,95115.84
2023-04-30T17:42:39.499Z,95129.09
2023-04-30T17:45:08.776Z,95134.94
2023-04-30T17:47:37.223Z,95137.53
2023-04-30T17:50:08.649Z,95139.91
2023-04-30T17:52:38.765Z,95153.38
2023-04-30T17:55:09.720Z,95127.19
2023-04-30T17:57:38.233Z,95160.38
2023-04-30T18:00:07.686Z,95155.59
2023-04-30T18:02:36.170Z,95168.94
2023-04-30T18:05:04.619Z,95167.44
2023-04-30T18:07:33.088Z,95162.97
2023-04-30T18:10:01.515Z,95173.00
2023-04-30T18:12:31.207Z,95176.91
2023-04-30T18:15:00.792Z,95179.69
2023-04-30T18:17:29.164Z,95188.25
2023-04-30T18:19:57.752Z,95186.75
2023-04-30T18:22:26.167Z,95172.00
2023-04-30T18:24:54.625Z,95193.09
2023-04-30T18:27:23.189Z,95190.03
2023-04-30T18:29:52.944Z,95190.31
2023-04-30T18:32:21.239Z,95202.50
2023-04-30T18:34:49.473Z,95199.97
2023-04-30T18:37:18.180Z,95195.25
2023-04-30T18:39:46.427Z,95204.59
2023-04-30T18:42:14.945Z,95209.94
2023-04-30T18:44:43.239Z,95217.09
2023-04-30T18:47:13.077Z,95225.41
2023-04-30T18:49:41.605Z,95234.53
2023-04-30T18:52:10.143Z,95227.91
2023-04-30T18:54:38.584Z,95234.88
2023-04-30T18:57:06.926Z,95235.63
2023-04-30T18:59:35.261Z,95239.03
2023-04-30T19:02:03.601Z,95243.03
2023-04-30T19:04:33.226Z,95243.84
2023-04-30T19:07:01.555Z,95246.25
2023-04-30T19:09:29.871Z,95207.97
2023-04-30T19:11:58.093Z,95256.97
2023-04-30T19:14:26.516Z,95258.25
2023-04-30T19:16:55.007Z,95255.81
2023-04-30T19:19:23.684Z,95250.38
2023-04-30T19:21:54.090Z,95212.22
2023-04-30T19:24:22.723Z,95259.44
2023-04-30T19:26:51.543Z,95265.50
2023-04-30T19:29:20.063Z,95268.84
2023-04-30T19:31:48.527Z,95269.94
2023-04-30T19:34:16.986Z,95273.13
2023-04-30T19:36:45.364Z,95276.50
2023-04-30T19:39:16.151Z,95277.66
2023-04-30T19:41:44.483Z,95276.38
2023-04-30T19:44:12.721Z,95232.22
2023-04-30T19:46:42.448Z,95269.78
2023-04-30T19:49:10.902Z,95276.38
2023-04-30T19:51:39.134Z,95282.69
2023-04-30T19:54:09.603Z,95289.25
2023-04-30T19:56:39.351Z,95275.25
2023-04-30T19:59:07.611Z,95275.81
2023-04-30T20:01:38.727Z,95286.13
2023-04-30T20:04:07.580Z,95268.56
2023-04-30T20:06:35.976Z,95288.91
2023-04-30T20:09:04.341Z,95292.16
2023-04-30T20:11:33.210Z,95287.78
2023-04-30T20:14:03.123Z,95280.63
2023-04-30T20:16:31.584Z,95276.38
2023-04-30T20:18:59.976Z,95266.97
2023-04-30T20:21:29.224Z,95289.88
2023-04-30T20:23:57.668Z,95287.13
2023-04-30T20:26:43.246Z,95257.28
2023-04-30T20:29:12.983Z,95295.88
2023-04-30T20:31:41.354Z,95247.66
2023-04-30T20:34:09.570Z,95289.78
2023-04-30T20:36:38.163Z,95292.53
2023-04-30T20:39:07.065Z,95211.94
2023-04-30T20:41:35.819Z,95297.97
2023-04-30T20:44:05.960Z,95301.75
2023-04-30T20:46:36.963Z,95299.34
2023-04-30T20:49:05.339Z,95261.00
2023-04-30T20:51:33.694Z,95300.41
2023-04-30T20:54:02.038Z,95293.78
2023-04-30T20:56:30.361Z,95257.53
2023-04-30T20:58:58.700Z,95301.00
2023-04-30T21:01:27.041Z,95215.97
2023-04-30T21:03:56.904Z,95308.34
2023-04-30T21:06:25.294Z,95287.47
2023-04-30T21:08:53.597Z,95308.88
2023-04-30T21:11:21.904Z,95311.47
2023-04-30T21:13:51.367Z,95310.06
2023-04-30T21:16:19.968Z,95317.75
2023-04-30T21:18:48.944Z,95310.94
2023-04-30T21:21:18.658Z,95324.63
2023-04-30T21:23:48.303Z,95323.66
2023-04-30T21:26:16.786Z,95330.28
2023-04-30T21:28:45.354Z,95326.09
2023-04-30T21:31:13.726Z,95326.63
2023-04-30T21:33:42.196Z,95326.06
2023-04-30T21:36:10.456Z,95328.28
2023-04-30T21:38:40.119Z,95328.59
2023-04-30T21:41:09.163Z,95326.06
2023-04-30T21:43:37.421Z,95321.66
2023-04-30T21:46:05.778Z,95319.19
2023-04-30T21:48:34.362Z,95298.63
2023-04-30T21:51:02.741Z,95330.75
2023-04-30T21:53:30.929Z,95326.22
2023-04-30T21:56:07.596Z,95331.03
2023-04-30T21:58:36.268Z,95334.94
2023-04-30T22:01:05.313Z,95335.84
2023-04-30T22:03:33.895Z,95320.97
2023-04-30T22:06:02.551Z,95334.00
2023-04-30T22:08:30.871Z,95332.97
2023-04-30T22:11:01.954Z,95345.78
2023-04-30T22:13:30.751Z,95283.91
2023-04-30T22:15:59.155Z,95329.81
2023-04-30T22:18:27.458Z,95331.00
2023-04-30T22:20:55.854Z,95260.94
2023-04-30T22:23:24.154Z,95318.22
2023-04-30T22:25:52.449Z,95336.66
2023-04-30T22:28:23.462Z,95337.16
2023-04-30T22:30:51.780Z,95268.56
2023-04-30T22:33:22.018Z,95305.91
2023-04-30T22:35:50.786Z,95343.28
2023-04-30T22:38:19.075Z,95343.09
2023-04-30T22:40:47.409Z,95347.97
2023-04-30T22:43:16.411Z,95338.94
2023-04-30T22:45:46.167Z,95336.53
2023-04-30T22:48:16.085Z,95340.06
2023-04-30T22:50:44.960Z,95335.69
2023-04-30T22:53:13.493Z,95331.56
2023-04-30T22:55:41.840Z,95324.72
2023-04-30T22:58:10.103Z,95324.72
2023-04-30T23:00:38.476Z,95320.25
2023-04-30T23:03:08.263Z,95321.09
2023-04-30T23:05:36.629Z,95318.38
2023-04-30T23:08:05.398Z,95319.25
2023-04-30T23:10:33.654Z,95322.34
2023-04-30T23:13:01.898Z,95328.41
2023-04-30T23:15:30.125Z,95326.03
2023-04-30T23:18:00.480Z,95310.78
2023-04-30T23:20:30.298Z,95332.38
2023-04-30T23:22:58.550Z,95299.06
2023-04-30T23:25:26.752Z,95338.13
2023-04-30T23:27:54.938Z,95345.53
2023-04-30T23:30:23.702Z,95340.75
2023-04-30T23:32:52.011Z,95357.97
2023-04-30T23:35:20.376Z,95354.06
2023-04-30T23:37:50.060Z,95356.16
2023-04-30T23:40:19.813Z,95357.03
2023-04-30T23:42:47.965Z,95361.25
2023-04-30T23:45:16.399Z,95354.16
2023-04-30T23:47:44.873Z,95345.78
2023-04-30T23:50:13.337Z,95350.22
2023-04-30T23:52:41.707Z,95270.72
2023-04-30T23:55:12.287Z,95357.19
2023-04-30T23:57:40.524Z,95354.34
